Time;durP1;ratioP1;P1;durP2;ratioP2;P2;SDS_P1;SDS_P2;PMS_P1;PMS_P2;Temp;Humidity;BMP_temperature;BMP_pressure;BME280_temperature;BME280_humidity;BME280_pressure;Samples;Min_cycle;Max_cycle;Signal;HPM_P1;HPM_P2
2022/10/15 00:01:41;;;;;;;9.40;8.10;;;14.40;99.90;;;;;;5013759;28;20658;-57
2022/10/15 00:04:06;;;;;;;9.87;8.80;;;14.40;99.90;;;;;;5013383;28;20533;-57
2022/10/15 00:06:32;;;;;;;9.17;8.37;;;14.40;99.90;;;;;;5013565;28;20184;-56
2022/10/15 00:08:58;;;;;;;9.63;8.63;;;14.40;99.90;;;;;;5013571;28;20171;-58
2022/10/15 00:11:25;;;;;;;9.00;8.10;;;14.30;99.90;;;;;;5013481;28;20330;-56
2022/10/15 00:13:57;;;;;;;9.20;8.30;;;14.30;99.90;;;;;;5012569;28;20714;-57
2022/10/15 00:16:25;;;;;;;8.77;7.97;;;14.30;99.90;;;;;;5012691;28;20208;-56
2022/10/15 00:18:53;;;;;;;9.13;8.20;;;14.40;99.90;;;;;;5012143;28;20176;-57
2022/10/15 00:21:20;;;;;;;9.17;8.27;;;14.40;99.90;;;;;;5012542;28;20192;-55
2022/10/15 00:23:46;;;;;;;9.03;8.13;;;14.30;99.90;;;;;;5013086;28;20165;-57
2022/10/15 00:26:18;;;;;;;10.83;8.97;;;14.30;99.90;;;;;;5012140;28;20185;-56
2022/10/15 00:28:45;;;;;;;8.67;7.77;;;14.30;99.90;;;;;;5013254;28;20247;-58
2022/10/15 00:31:16;;;;;;;9.20;8.30;;;14.30;99.90;;;;;;5013296;28;20635;-56
2022/10/15 00:33:42;;;;;;;8.33;7.43;;;14.30;99.90;;;;;;5012772;28;20242;-56
2022/10/15 00:36:14;;;;;;;10.17;7.83;;;14.40;99.90;;;;;;5012776;28;20220;-57
2022/10/15 00:38:39;;;;;;;9.17;8.30;;;14.50;99.90;;;;;;5012897;28;20156;-56
2022/10/15 00:41:06;;;;;;;10.80;8.30;;;14.40;99.90;;;;;;5012578;28;20249;-54
2022/10/15 00:43:45;;;;;;;9.80;8.90;;;14.30;99.90;;;;;;5012392;28;20177;-58
2022/10/15 00:46:19;;;;;;;8.97;7.97;;;14.20;99.90;;;;;;5013109;28;20168;-58
2022/10/15 00:48:48;;;;;;;10.03;9.03;;;14.00;99.90;;;;;;5012629;28;20175;-58
2022/10/15 00:51:16;;;;;;;9.20;8.30;;;14.10;99.90;;;;;;5012584;28;20753;-56
2022/10/15 00:53:42;;;;;;;8.47;7.67;;;14.10;99.90;;;;;;5012384;28;20183;-57
2022/10/15 00:56:08;;;;;;;9.93;8.17;;;14.20;99.90;;;;;;5012668;28;20204;-56
2022/10/15 00:58:34;;;;;;;10.77;9.50;;;14.20;99.90;;;;;;5012522;28;20634;-59
2022/10/15 01:01:00;;;;;;;8.63;7.73;;;13.60;99.90;;;;;;5012543;28;20283;-57
2022/10/15 01:03:26;;;;;;;8.50;7.63;;;14.30;99.90;;;;;;5012069;28;20672;-58
2022/10/15 01:05:52;;;;;;;10.13;8.30;;;14.20;99.90;;;;;;5012403;28;20632;-59
2022/10/15 01:08:18;;;;;;;8.60;7.80;;;14.20;99.90;;;;;;5012171;28;20213;-58
2022/10/15 01:10:59;;;;;;;11.73;8.03;;;14.20;99.90;;;;;;5012577;28;20234;-59
2022/10/15 01:13:53;;;;;;;9.20;8.20;;;14.30;99.90;;;;;;5012698;28;20538;-57
2022/10/15 01:16:31;;;;;;;9.40;8.60;;;14.20;99.90;;;;;;5012808;28;20204;-59
2022/10/15 01:19:06;;;;;;;9.67;8.73;;;14.20;99.90;;;;;;5012540;28;20161;-58
2022/10/15 01:21:44;;;;;;;10.27;8.83;;;14.30;99.90;;;;;;5011260;28;20192;-58
2022/10/15 01:24:26;;;;;;;9.87;8.80;;;14.30;99.90;;;;;;5011366;28;20175;-59
2022/10/15 01:27:10;;;;;;;9.73;8.67;;;14.30;99.90;;;;;;5011995;28;20176;-58
2022/10/15 01:30:16;;;;;;;10.17;9.20;;;14.30;99.90;;;;;;5011964;28;20263;-59
2022/10/15 01:32:54;;;;;;;9.57;8.67;;;14.30;99.90;;;;;;5012188;28;20243;-56
2022/10/15 01:35:41;;;;;;;9.97;8.30;;;14.30;99.90;;;;;;5010951;28;20214;-58
2022/10/15 01:38:19;;;;;;;9.83;8.53;;;14.30;99.90;;;;;;5012340;28;20189;-59
2022/10/15 01:40:55;;;;;;;10.20;8.77;;;14.30;99.90;;;;;;5011765;28;20763;-57
2022/10/15 01:43:30;;;;;;;10.77;8.30;;;14.20;99.90;;;;;;5011565;28;20258;-57
2022/10/15 01:46:01;;;;;;;10.00;9.07;;;14.20;99.90;;;;;;5012041;28;20309;-58
2022/10/15 01:48:30;;;;;;;9.80;8.90;;;14.40;99.90;;;;;;4994141;28;20177;-58
2022/10/15 01:51:00;;;;;;;10.37;9.20;;;14.20;99.90;;;;;;5011539;28;20692;-57
2022/10/15 01:53:27;;;;;;;14.57;9.63;;;14.10;99.90;;;;;;5011024;28;20180;-58
2022/10/15 01:55:58;;;;;;;10.17;9.27;;;14.10;99.90;;;;;;5011556;28;20247;-58
2022/10/15 01:58:25;;;;;;;11.33;9.60;;;14.20;99.90;;;;;;5011837;28;20195;-58
2022/10/15 02:00:54;;;;;;;11.83;10.33;;;14.10;99.90;;;;;;5011544;28;20193;-59
2022/10/15 02:03:20;;;;;;;11.50;10.30;;;14.00;99.90;;;;;;5011371;28;20577;-59
2022/10/15 02:06:08;;;;;;;10.97;9.63;;;13.90;99.90;;;;;;5011688;28;20176;-59
2022/10/15 02:08:44;;;;;;;10.73;9.73;;;13.90;99.90;;;;;;5011572;28;20165;-59
2022/10/15 02:11:13;;;;;;;10.30;9.30;;;13.80;99.90;;;;;;5011326;28;20255;-59
2022/10/15 02:14:00;;;;;;;11.43;10.00;;;13.80;99.90;;;;;;5011462;28;20552;-58
2022/10/15 02:16:43;;;;;;;10.50;9.23;;;13.80;99.90;;;;;;5011302;28;20677;-58
2022/10/15 02:19:21;;;;;;;11.13;10.03;;;13.80;99.90;;;;;;5012208;28;20579;-58
2022/10/15 02:21:52;;;;;;;10.87;9.87;;;13.80;99.90;;;;;;5011527;28;20197;-58
2022/10/15 02:24:28;;;;;;;11.47;10.33;;;13.80;99.90;;;;;;5010545;28;20179;-56
2022/10/15 02:26:58;;;;;;;11.33;10.23;;;13.90;99.90;;;;;;5011528;28;20593;-58
2022/10/15 02:29:28;;;;;;;10.53;9.53;;;13.90;99.90;;;;;;5011405;28;20175;-59
2022/10/15 02:31:56;;;;;;;10.83;9.77;;;13.80;99.90;;;;;;5011275;28;20211;-55
2022/10/15 02:34:26;;;;;;;10.67;9.67;;;13.80;99.90;;;;;;4993883;28;20199;-58
2022/10/15 02:36:53;;;;;;;11.27;10.20;;;13.80;99.90;;;;;;5011230;28;20227;-59
2022/10/15 02:39:23;;;;;;;12.20;10.43;;;13.80;99.90;;;;;;5011435;28;20709;-56
2022/10/15 02:41:49;;;;;;;12.47;10.00;;;;;;;;;;5010382;28;20676;-57
2022/10/15 02:44:15;;;;;;;13.93;10.10;;;;;;;;;;5011058;28;20179;-58
2022/10/15 02:46:41;;;;;;;12.63;11.43;;;14.00;99.90;;;;;;5011212;28;20258;-55
2022/10/15 02:49:07;;;;;;;10.70;9.53;;;13.90;99.90;;;;;;5011269;28;20650;-57
2022/10/15 02:51:34;;;;;;;11.83;10.63;;;13.90;99.90;;;;;;5011253;28;20310;-59
2022/10/15 02:54:01;;;;;;;10.67;9.67;;;13.90;99.90;;;;;;5010924;28;20266;-56
2022/10/15 02:56:27;;;;;;;11.80;10.47;;;14.00;99.90;;;;;;5011203;28;20611;-57
2022/10/15 02:58:52;;;;;;;12.00;10.80;;;13.90;99.90;;;;;;5011154;28;20263;-59
2022/10/15 03:01:18;;;;;;;11.63;9.77;;;13.90;99.90;;;;;;5011022;28;20215;-57
2022/10/15 03:03:44;;;;;;;11.47;10.40;;;13.90;99.90;;;;;;5010780;28;20603;-58
2022/10/15 03:06:09;;;;;;;11.27;10.17;;;13.80;99.90;;;;;;5013558;28;20176;-58
2022/10/15 03:08:35;;;;;;;11.77;10.67;;;13.80;99.90;;;;;;5014543;28;20189;-58
2022/10/15 03:11:01;;;;;;;11.67;10.47;;;13.80;99.90;;;;;;5014592;28;20288;-58
2022/10/15 03:13:28;;;;;;;12.40;11.20;;;13.80;99.90;;;;;;5014430;28;20181;-55
2022/10/15 03:15:53;;;;;;;11.43;10.23;;;13.90;99.90;;;;;;5014606;28;20210;-55
2022/10/15 03:18:19;;;;;;;10.13;9.13;;;13.80;99.90;;;;;;5014266;28;20259;-54
2022/10/15 03:20:52;;;;;;;11.97;10.77;;;13.80;99.90;;;;;;5014278;28;20203;-56
2022/10/15 03:23:18;;;;;;;11.00;9.90;;;13.90;99.90;;;;;;5014103;28;20165;-58
2022/10/15 03:25:43;;;;;;;9.63;8.80;;;13.90;99.90;;;;;;5014635;28;20173;-56
2022/10/15 03:28:09;;;;;;;11.33;10.10;;;13.90;99.90;;;;;;5014228;28;20176;-55
2022/10/15 03:30:35;;;;;;;11.93;10.60;;;14.00;99.90;;;;;;5014014;28;20201;-57
2022/10/15 03:33:00;;;;;;;11.63;10.50;;;14.00;99.90;;;;;;5014095;28;20627;-58
2022/10/15 03:35:26;;;;;;;12.53;11.37;;;13.90;99.90;;;;;;5013728;28;20196;-57
2022/10/15 03:37:51;;;;;;;11.10;10.00;;;13.90;99.90;;;;;;5014106;28;20204;-58
2022/10/15 03:40:17;;;;;;;11.90;10.77;;;14.00;99.90;;;;;;5013822;28;20196;-58
2022/10/15 03:42:42;;;;;;;12.47;11.20;;;13.90;99.90;;;;;;5014114;28;20203;-57
2022/10/15 03:45:09;;;;;;;13.67;12.27;;;13.90;99.90;;;;;;5013753;28;20168;-58
2022/10/15 03:47:34;;;;;;;12.20;11.00;;;13.80;99.90;;;;;;5013827;28;20175;-59
2022/10/15 03:50:00;;;;;;;14.77;12.20;;;13.60;99.90;;;;;;5013688;28;20338;-58
2022/10/15 03:52:26;;;;;;;12.33;11.13;;;;;;;;;;5013885;28;20184;-58
2022/10/15 03:54:51;;;;;;;11.43;10.33;;;13.70;99.90;;;;;;5014239;28;20286;-58
2022/10/15 03:57:17;;;;;;;15.00;13.50;;;13.70;99.90;;;;;;5014334;28;20179;-59
2022/10/15 03:59:42;;;;;;;11.80;10.70;;;13.80;99.90;;;;;;5014047;28;20213;-58
2022/10/15 04:02:08;;;;;;;11.87;10.50;;;13.90;99.90;;;;;;5013439;28;20271;-57
2022/10/15 04:04:33;;;;;;;12.17;10.97;;;13.90;99.90;;;;;;5013257;28;20184;-57
2022/10/15 04:06:59;;;;;;;12.43;10.73;;;13.90;99.90;;;;;;5013393;28;20173;-58
2022/10/15 04:09:24;;;;;;;14.97;13.40;;;13.90;99.90;;;;;;5013526;28;20175;-58
2022/10/15 04:11:50;;;;;;;12.37;11.17;;;13.80;99.90;;;;;;5013159;28;20195;-58
2022/10/15 04:14:16;;;;;;;12.90;11.70;;;13.60;99.90;;;;;;5013104;28;20194;-58
2022/10/15 04:16:41;;;;;;;12.53;11.33;;;13.50;99.90;;;;;;5012425;28;20287;-58
2022/10/15 04:19:07;;;;;;;13.70;11.80;;;13.50;99.90;;;;;;5013325;28;20228;-56
2022/10/15 04:21:32;;;;;;;13.20;11.80;;;13.40;99.90;;;;;;5012390;28;20198;-59
2022/10/15 04:23:58;;;;;;;13.20;11.90;;;13.40;99.90;;;;;;5013230;28;20199;-59
2022/10/15 04:26:23;;;;;;;16.70;14.90;;;13.30;99.90;;;;;;5013262;28;20544;-59
2022/10/15 04:28:49;;;;;;;14.73;13.23;;;13.30;99.90;;;;;;5013075;28;20560;-59
2022/10/15 04:31:15;;;;;;;15.37;13.97;;;13.40;99.90;;;;;;5013030;28;20198;-59
2022/10/15 04:33:40;;;;;;;14.13;12.73;;;13.40;99.90;;;;;;5012646;28;20281;-58
2022/10/15 04:36:10;;;;;;;13.90;12.60;;;13.00;99.90;;;;;;5012973;28;20213;-59
2022/10/15 04:38:36;;;;;;;12.03;10.93;;;13.40;99.90;;;;;;5012916;28;20274;-59
2022/10/15 04:41:07;;;;;;;14.80;13.23;;;13.40;99.90;;;;;;5012812;28;20214;-59
2022/10/15 04:43:32;;;;;;;11.93;10.87;;;13.40;99.90;;;;;;5012040;28;20182;-59
2022/10/15 04:46:00;;;;;;;13.90;12.53;;;13.40;99.90;;;;;;5012592;28;20257;-60
2022/10/15 04:48:30;;;;;;;12.87;11.67;;;13.50;99.90;;;;;;5012593;28;20180;-59
2022/10/15 04:51:10;;;;;;;11.80;10.70;;;13.60;99.90;;;;;;5038783;23;20294;-48
2022/10/15 04:53:35;;;;;;;12.47;11.30;;;13.50;99.90;;;;;;5008201;28;20195;-49
2022/10/15 04:56:07;;;;;;;12.67;11.53;;;13.50;99.90;;;;;;5014468;28;20756;-50
2022/10/15 04:58:34;;;;;;;10.40;9.47;;;13.50;99.90;;;;;;5031658;28;20663;-49
2022/10/15 05:01:05;;;;;;;11.83;10.70;;;13.60;99.90;;;;;;5021827;28;20190;-49
2022/10/15 05:03:32;;;;;;;10.13;9.20;;;13.50;99.90;;;;;;5011575;28;20209;-52
2022/10/15 05:06:12;;;;;;;13.33;12.03;;;13.60;99.90;;;;;;5012037;28;20185;-49
2022/10/15 05:08:42;;;;;;;11.73;10.63;;;13.60;99.90;;;;;;5011910;28;20184;-48
2022/10/15 05:11:13;;;;;;;9.63;8.77;;;13.60;99.90;;;;;;5004124;28;20638;-49
2022/10/15 05:13:39;;;;;;;8.83;8.03;;;13.50;99.90;;;;;;5011932;28;20174;-53
2022/10/15 05:16:25;;;;;;;10.50;9.50;;;13.40;99.90;;;;;;5011878;28;20290;-48
2022/10/15 05:18:56;;;;;;;11.10;10.10;;;13.20;99.90;;;;;;5012001;28;20621;-50
2022/10/15 05:21:21;;;;;;;10.37;9.47;;;13.10;99.90;;;;;;5011748;28;20219;-49
2022/10/15 05:23:48;;;;;;;11.93;9.43;;;13.10;99.90;;;;;;5011643;28;20166;-51
2022/10/15 05:26:17;;;;;;;9.37;8.57;;;13.10;99.90;;;;;;5011632;28;20175;-48
2022/10/15 05:28:42;;;;;;;10.13;9.23;;;13.20;99.90;;;;;;5010977;28;20875;-48
2022/10/15 05:31:10;;;;;;;8.93;8.07;;;13.00;99.90;;;;;;5011639;28;20204;-50
2022/10/15 05:33:36;;;;;;;10.17;9.17;;;13.10;99.90;;;;;;5011446;28;20178;-52
2022/10/15 05:36:19;;;;;;;9.10;8.20;;;13.20;99.90;;;;;;5011528;28;20761;-48
2022/10/15 05:38:46;;;;;;;8.00;7.30;;;12.60;99.90;;;;;;5011645;28;20170;-49
2022/10/15 05:41:12;;;;;;;9.70;8.80;;;13.10;99.90;;;;;;5011450;28;20280;-49
2022/10/15 05:43:39;;;;;;;9.27;8.17;;;13.10;99.90;;;;;;5011330;28;20299;-48
2022/10/15 05:46:04;;;;;;;8.67;7.87;;;13.00;99.90;;;;;;5011491;28;20184;-49
2022/10/15 05:48:30;;;;;;;7.93;7.23;;;13.00;99.90;;;;;;5011462;28;20545;-48
2022/10/15 05:51:07;;;;;;;8.00;7.30;;;13.10;99.90;;;;;;5011288;28;20181;-48
2022/10/15 05:53:33;;;;;;;8.13;7.43;;;13.10;99.90;;;;;;5011076;28;20184;-47
2022/10/15 05:55:59;;;;;;;7.23;6.63;;;13.10;99.90;;;;;;5009211;28;20202;-50
2022/10/15 05:58:25;;;;;;;7.57;5.90;;;13.20;99.90;;;;;;5009814;28;20173;-52
2022/10/15 06:00:59;;;;;;;6.10;5.50;;;13.10;99.90;;;;;;5018916;28;20665;-53
2022/10/15 06:03:26;;;;;;;6.27;5.67;;;13.20;99.90;;;;;;5029174;28;20170;-51
2022/10/15 06:05:52;;;;;;;5.13;4.73;;;13.50;99.90;;;;;;5029678;28;20207;-50
2022/10/15 06:08:18;;;;;;;5.13;4.63;;;13.50;99.90;;;;;;5030914;28;20677;-48
2022/10/15 06:10:43;;;;;;;5.40;4.90;;;13.20;99.90;;;;;;5030547;28;20167;-52
2022/10/15 06:13:09;;;;;;;5.07;4.60;;;13.20;99.90;;;;;;5030197;28;20201;-48
2022/10/15 06:15:41;;;;;;;5.57;5.03;;;13.20;99.90;;;;;;5030792;28;20204;-49
2022/10/15 06:18:08;;;;;;;4.93;4.40;;;13.30;99.90;;;;;;5030947;28;20263;-51
2022/10/15 06:20:35;;;;;;;5.40;4.83;;;13.20;99.90;;;;;;5030641;28;20177;-49
2022/10/15 06:23:02;;;;;;;5.10;4.70;;;13.10;99.90;;;;;;5030744;28;20289;-48
2022/10/15 06:25:28;;;;;;;5.93;5.00;;;13.10;99.90;;;;;;5030844;28;20172;-49
2022/10/15 06:27:54;;;;;;;5.33;4.83;;;13.10;99.90;;;;;;5030935;28;20857;-48
2022/10/15 06:30:20;;;;;;;5.47;4.97;;;14.60;99.90;;;;;;5030981;28;20170;-48
2022/10/15 06:32:50;;;;;;;5.03;4.63;;;13.00;99.90;;;;;;5030666;28;20202;-49
2022/10/15 06:35:17;;;;;;;5.00;4.60;;;13.00;99.90;;;;;;5030401;28;20197;-48
2022/10/15 06:37:43;;;;;;;4.40;4.00;;;13.00;99.90;;;;;;5031233;28;20643;-52
2022/10/15 06:40:10;;;;;;;4.67;4.27;;;13.10;99.90;;;;;;5031870;28;20257;-52
2022/10/15 06:42:35;;;;;;;6.67;5.33;;;13.10;99.90;;;;;;5034749;28;20190;-50
2022/10/15 06:45:01;;;;;;;5.93;5.03;;;13.20;99.90;;;;;;5034226;28;20181;-50
2022/10/15 06:47:26;;;;;;;5.57;5.00;;;13.30;99.90;;;;;;5034713;28;20174;-48
2022/10/15 06:49:52;;;;;;;4.90;4.50;;;13.30;99.90;;;;;;5034181;28;20168;-52
2022/10/15 06:52:18;;;;;;;5.27;4.33;;;13.30;99.90;;;;;;5034502;28;20700;-49
2022/10/15 06:54:43;;;;;;;4.53;4.13;;;13.30;99.90;;;;;;5034142;28;20538;-52
2022/10/15 06:57:09;;;;;;;5.23;4.43;;;13.30;99.90;;;;;;5034278;28;20211;-48
2022/10/15 06:59:34;;;;;;;4.77;4.37;;;13.20;99.90;;;;;;5034322;28;20164;-51
2022/10/15 07:02:00;;;;;;;6.30;4.53;;;13.20;99.90;;;;;;5034304;28;20273;-48
2022/10/15 07:04:25;;;;;;;4.07;3.77;;;13.20;99.90;;;;;;5033799;28;20170;-49
2022/10/15 07:06:51;;;;;;;4.50;4.10;;;13.30;99.90;;;;;;5034352;28;20706;-51
2022/10/15 07:09:18;;;;;;;4.07;3.77;;;13.20;99.90;;;;;;5022290;28;20245;-49
2022/10/15 07:11:43;;;;;;;4.53;4.13;;;13.40;99.90;;;;;;5014170;28;20184;-52
2022/10/15 07:14:09;;;;;;;5.53;3.60;;;13.30;99.90;;;;;;5014055;28;20188;-49
2022/10/15 07:16:36;;;;;;;4.53;4.13;;;13.30;99.90;;;;;;5013952;28;20210;-51
2022/10/15 07:19:01;;;;;;;5.27;4.73;;;13.40;99.90;;;;;;5014233;28;20547;-48
2022/10/15 07:21:27;;;;;;;3.80;3.33;;;13.40;99.90;;;;;;5014204;28;20189;-48
2022/10/15 07:23:53;;;;;;;5.53;4.20;;;13.40;99.90;;;;;;5013915;28;20646;-52
2022/10/15 07:26:18;;;;;;;4.00;3.60;;;13.40;99.90;;;;;;5014081;28;20175;-53
2022/10/15 07:28:44;;;;;;;4.20;3.80;;;13.40;99.90;;;;;;5014079;28;20203;-52
2022/10/15 07:31:09;;;;;;;3.90;3.50;;;13.40;99.90;;;;;;5013803;28;20194;-49
2022/10/15 07:33:35;;;;;;;4.00;3.53;;;13.40;99.90;;;;;;5013710;28;20183;-50
2022/10/15 07:36:09;;;;;;;3.47;3.17;;;13.40;99.90;;;;;;5013926;28;20601;-54
2022/10/15 07:38:34;;;;;;;10.13;9.13;;;13.50;99.90;;;;;;5013834;28;20215;-53
2022/10/15 07:41:01;;;;;;;22.80;20.10;;;13.50;99.90;;;;;;5013903;28;20178;-48
2022/10/15 07:43:27;;;;;;;9.60;8.70;;;13.50;99.90;;;;;;5013499;28;20174;-49
2022/10/15 07:45:53;;;;;;;4.03;3.70;;;13.50;99.90;;;;;;5013614;28;20261;-51
2022/10/15 07:48:19;;;;;;;4.03;3.63;;;13.60;99.90;;;;;;5012554;28;20203;-49
2022/10/15 07:50:45;;;;;;;4.20;3.80;;;13.50;99.90;;;;;;5012969;28;20702;-52
2022/10/15 07:53:11;;;;;;;3.70;3.37;;;13.50;99.90;;;;;;5011600;28;20253;-48
2022/10/15 07:55:37;;;;;;;3.60;3.30;;;13.60;99.90;;;;;;5013565;28;20195;-50
2022/10/15 07:58:04;;;;;;;3.60;3.30;;;13.60;99.90;;;;;;5013329;28;20176;-52
2022/10/15 08:00:32;;;;;;;3.30;3.00;;;13.70;99.90;;;;;;5013451;28;20175;-49
2022/10/15 08:02:57;;;;;;;3.77;3.37;;;13.80;99.90;;;;;;5013263;28;20196;-48
2022/10/15 08:05:23;;;;;;;4.40;3.07;;;13.80;99.90;;;;;;5013170;28;20310;-50
2022/10/15 08:07:48;;;;;;;4.00;3.70;;;13.90;99.90;;;;;;5013211;28;20175;-51
2022/10/15 08:10:14;;;;;;;3.93;2.80;;;13.90;99.90;;;;;;5012251;28;20546;-49
2022/10/15 08:12:40;;;;;;;4.43;4.03;;;13.90;99.90;;;;;;5012433;28;20199;-54
2022/10/15 08:15:06;;;;;;;2.77;2.57;;;14.00;99.90;;;;;;5012594;28;20545;-51
2022/10/15 08:17:32;;;;;;;3.40;3.10;;;14.10;99.90;;;;;;5013342;28;20181;-51
2022/10/15 08:19:57;;;;;;;2.77;2.57;;;14.10;99.90;;;;;;5012845;28;20182;-51
2022/10/15 08:22:23;;;;;;;2.13;2.00;;;14.20;99.90;;;;;;5013040;28;20192;-50
2022/10/15 08:24:48;;;;;;;2.30;2.20;;;14.30;99.90;;;;;;5012738;28;20641;-48
2022/10/15 08:27:14;;;;;;;2.57;2.37;;;14.30;99.90;;;;;;5012840;28;20637;-48
2022/10/15 08:29:40;;;;;;;2.17;2.07;;;14.20;99.90;;;;;;5012806;28;20587;-49
2022/10/15 08:32:05;;;;;;;1.80;1.70;;;14.20;99.90;;;;;;5012705;28;20196;-51
2022/10/15 08:34:31;;;;;;;2.33;2.23;;;14.30;99.90;;;;;;5012361;28;20187;-48
2022/10/15 08:36:56;;;;;;;2.00;1.90;;;14.30;99.90;;;;;;5012015;28;20204;-50
2022/10/15 08:39:22;;;;;;;1.93;1.83;;;14.40;99.90;;;;;;5012525;28;20701;-53
2022/10/15 08:41:52;;;;;;;1.97;1.77;;;14.40;99.90;;;;;;5012810;28;20224;-50
2022/10/15 08:44:28;;;;;;;1.60;1.50;;;14.40;99.90;;;;;;5011061;28;20264;-52
2022/10/15 08:47:11;;;;;;;1.50;1.40;;;14.50;99.90;;;;;;5012610;28;20176;-49
2022/10/15 08:49:42;;;;;;;1.60;1.50;;;14.50;99.90;;;;;;5012428;28;20181;-54
2022/10/15 08:52:21;;;;;;;2.57;2.10;;;14.50;99.90;;;;;;5012411;28;20208;-52
2022/10/15 08:54:46;;;;;;;1.57;1.47;;;14.50;99.90;;;;;;5012195;28;20175;-52
2022/10/15 08:57:45;;;;;;;1.50;1.40;;;14.50;99.90;;;;;;5012384;28;20303;-51
2022/10/15 09:00:15;;;;;;;1.70;1.60;;;14.50;99.90;;;;;;5012225;28;20173;-52
2022/10/15 09:03:03;;;;;;;1.93;1.70;;;14.50;99.90;;;;;;5012120;28;20847;-54
2022/10/15 09:05:45;;;;;;;1.70;1.60;;;14.40;99.90;;;;;;5012129;28;20208;-48
2022/10/15 09:08:37;;;;;;;1.10;1.10;;;14.50;99.90;;;;;;5012411;28;20203;-50
2022/10/15 09:11:14;;;;;;;1.73;1.40;;;14.60;99.90;;;;;;5012055;28;20177;-51
2022/10/15 09:13:42;;;;;;;1.60;1.50;;;14.60;99.90;;;;;;5011841;28;20657;-50
2022/10/15 09:16:23;;;;;;;2.70;2.50;;;14.60;99.90;;;;;;5012034;28;20206;-53
2022/10/15 09:18:51;;;;;;;2.10;2.00;;;14.70;99.90;;;;;;5011966;28;20165;-49
2022/10/15 09:21:19;;;;;;;1.40;1.30;;;14.70;99.90;;;;;;5011960;28;20188;-50
2022/10/15 09:23:44;;;;;;;3.00;2.80;;;14.80;99.90;;;;;;5011737;28;20668;-48
2022/10/15 09:26:43;;;;;;;3.20;3.00;;;14.80;99.90;;;;;;5011684;28;20259;-49
2022/10/15 09:29:30;;;;;;;2.10;2.00;;;14.90;99.90;;;;;;5011703;28;20180;-53
2022/10/15 09:32:08;;;;;;;2.87;2.60;;;15.10;99.90;;;;;;5011791;28;20211;-53
2022/10/15 09:34:48;;;;;;;7.80;7.10;;;15.20;99.90;;;;;;5011663;28;20172;-54
2022/10/15 09:37:32;;;;;;;6.80;6.20;;;15.20;99.90;;;;;;5011715;28;20219;-54
2022/10/15 09:40:20;;;;;;;2.13;2.03;;;15.20;99.90;;;;;;5011693;28;20245;-53
2022/10/15 09:42:49;;;;;;;1.67;1.57;;;15.30;99.90;;;;;;5011479;28;20185;-51
2022/10/15 09:45:15;;;;;;;1.67;1.57;;;15.30;99.90;;;;;;5011436;28;20658;-52
2022/10/15 09:47:42;;;;;;;1.60;1.50;;;15.20;99.90;;;;;;5011578;28;20189;-50
2022/10/15 09:50:10;;;;;;;1.60;1.50;;;15.20;99.90;;;;;;5011512;28;20176;-54
2022/10/15 09:52:48;;;;;;;2.50;1.30;;;15.30;99.90;;;;;;5011421;28;20220;-51
2022/10/15 09:55:30;;;;;;;0.93;0.93;;;15.30;99.90;;;;;;5011128;28;20215;-51
2022/10/15 09:58:00;;;;;;;1.73;1.13;;;15.30;99.90;;;;;;5011426;28;20593;-54
2022/10/15 10:00:52;;;;;;;2.40;1.30;;;15.30;99.90;;;;;;5011546;28;20180;-52
2022/10/15 10:03:18;;;;;;;1.23;1.20;;;15.30;99.90;;;;;;5011210;28;20251;-50
2022/10/15 10:05:44;;;;;;;1.07;1.07;;;15.40;99.90;;;;;;5011401;28;20287;-51
2022/10/15 10:08:37;;;;;;;1.40;1.30;;;15.40;99.90;;;;;;5011428;28;20548;-53
2022/10/15 10:11:06;;;;;;;1.30;1.20;;;15.50;99.90;;;;;;5011541;28;20183;-48
2022/10/15 10:13:48;;;;;;;1.13;1.10;;;15.50;99.90;;;;;;5011166;28;20242;-51
2022/10/15 10:16:16;;;;;;;1.30;1.20;;;15.50;99.90;;;;;;5014190;28;20196;-48
2022/10/15 10:18:49;;;;;;;1.07;1.07;;;15.40;99.90;;;;;;5015266;28;20176;-49
2022/10/15 10:21:27;;;;;;;1.10;1.10;;;15.50;99.90;;;;;;5015323;28;20192;-52
2022/10/15 10:23:52;;;;;;;1.20;1.20;;;15.40;99.90;;;;;;5015036;28;20183;-48
2022/10/15 10:26:19;;;;;;;1.27;1.10;;;15.50;99.90;;;;;;5015105;28;20181;-49
2022/10/15 10:28:52;;;;;;;1.27;1.17;;;15.50;99.90;;;;;;5015135;28;20645;-50
2022/10/15 10:31:27;;;;;;;1.20;1.10;;;15.60;99.90;;;;;;5015117;28;20759;-48
2022/10/15 10:33:53;;;;;;;1.13;1.03;;;15.60;99.90;;;;;;5014930;28;20204;-48
2022/10/15 10:36:29;;;;;;;1.00;1.00;;;15.60;99.90;;;;;;5014307;28;20247;-50
2022/10/15 10:39:23;;;;;;;1.63;0.97;;;15.60;99.90;;;;;;5014963;28;20176;-48
2022/10/15 10:41:54;;;;;;;1.30;1.00;;;15.60;99.90;;;;;;5007408;28;20205;-49
2022/10/15 10:44:25;;;;;;;1.10;1.00;;;15.70;99.90;;;;;;5014869;28;20261;-49
2022/10/15 10:47:10;;;;;;;0.97;0.93;;;15.60;99.90;;;;;;5014975;28;20183;-51
2022/10/15 10:49:41;;;;;;;1.00;1.00;;;15.70;99.90;;;;;;5014972;28;20587;-48
2022/10/15 10:52:21;;;;;;;1.67;0.80;;;15.70;99.90;;;;;;5015754;28;20244;-51
2022/10/15 10:54:56;;;;;;;0.90;0.90;;;15.70;99.90;;;;;;5014665;28;20549;-48
2022/10/15 10:57:31;;;;;;;0.87;0.87;;;15.70;99.90;;;;;;5014714;28;20214;-50
2022/10/15 10:59:57;;;;;;;0.90;0.90;;;15.60;99.90;;;;;;5014724;28;20169;-49
2022/10/15 11:02:22;;;;;;;1.23;0.70;;;15.70;99.90;;;;;;5014456;28;20204;-49
2022/10/15 11:04:48;;;;;;;0.97;0.97;;;15.60;99.90;;;;;;5014344;28;20587;-48
2022/10/15 11:07:26;;;;;;;1.83;0.90;;;15.60;99.90;;;;;;5014533;28;20173;-50
2022/10/15 11:10:17;;;;;;;1.07;0.97;;;15.70;99.90;;;;;;5014521;28;20176;-48
2022/10/15 11:13:11;;;;;;;1.70;1.00;;;15.70;99.90;;;;;;5014335;28;20192;-48
2022/10/15 11:15:52;;;;;;;0.83;0.80;;;15.70;99.90;;;;;;5014431;28;20213;-48
2022/10/15 11:18:46;;;;;;;0.77;0.70;;;15.60;99.90;;;;;;5014130;28;20178;-52
2022/10/15 11:21:35;;;;;;;0.97;0.93;;;15.70;99.90;;;;;;5014257;28;20193;-51
2022/10/15 11:24:37;;;;;;;0.93;0.80;;;15.70;99.90;;;;;;5013984;28;20179;-48
2022/10/15 11:27:30;;;;;;;3.03;0.87;;;15.70;99.90;;;;;;4972679;28;20591;-48
2022/10/15 11:29:58;;;;;;;1.00;0.90;;;15.70;99.90;;;;;;4972778;28;20234;-48
2022/10/15 11:32:40;;;;;;;0.90;0.50;;;15.60;99.90;;;;;;4972777;28;20257;-48
2022/10/15 11:35:08;;;;;;;0.90;0.90;;;15.70;99.90;;;;;;4972354;28;20186;-48
2022/10/15 11:37:52;;;;;;;0.70;0.70;;;15.70;99.90;;;;;;4972610;28;20186;-48
2022/10/15 11:40:24;;;;;;;2.47;0.77;;;15.80;99.90;;;;;;4972552;28;20184;-49
2022/10/15 11:42:57;;;;;;;1.50;0.70;;;16.00;99.90;;;;;;4972418;28;20213;-50
2022/10/15 11:45:31;;;;;;;0.97;0.80;;;16.10;99.90;;;;;;4972208;28;20181;-51
2022/10/15 11:48:25;;;;;;;0.70;0.70;;;16.10;99.90;;;;;;4972423;28;20238;-50
2022/10/15 11:51:00;;;;;;;0.90;0.90;;;16.20;99.90;;;;;;4931424;29;20209;-48
2022/10/15 11:53:55;;;;;;;1.23;0.87;;;16.30;99.90;;;;;;4932427;29;20240;-52
2022/10/15 11:56:37;;;;;;;2.30;1.00;;;16.40;99.90;;;;;;4933049;29;20371;-49
2022/10/15 11:59:14;;;;;;;0.83;0.83;;;16.50;99.90;;;;;;4932675;29;20178;-50
2022/10/15 12:01:45;;;;;;;1.63;1.20;;;16.50;99.90;;;;;;4935000;29;20288;-49
2022/10/15 12:04:19;;;;;;;1.23;1.00;;;16.50;99.90;;;;;;4952600;29;20178;-50
2022/10/15 12:06:51;;;;;;;0.87;0.80;;;16.70;99.90;;;;;;4952923;29;20194;-50
2022/10/15 12:09:27;;;;;;;0.70;0.70;;;16.80;99.90;;;;;;4952782;29;20191;-48
2022/10/15 12:12:17;;;;;;;0.60;0.60;;;16.90;99.90;;;;;;4952636;29;20202;-48
2022/10/15 12:14:51;;;;;;;0.73;0.73;;;17.00;99.90;;;;;;4952322;29;20191;-52
2022/10/15 12:17:34;;;;;;;1.93;0.70;;;17.00;99.90;;;;;;4952633;29;20304;-50
2022/10/15 12:20:07;;;;;;;3.23;1.00;;;17.10;99.90;;;;;;4952582;29;20229;-50
2022/10/15 12:22:52;;;;;;;0.60;0.60;;;17.20;99.90;;;;;;4952573;29;20213;-49
2022/10/15 12:25:33;;;;;;;1.57;0.80;;;17.40;99.90;;;;;;4951915;29;20178;-50
2022/10/15 12:28:12;;;;;;;4.63;0.70;;;17.60;99.90;;;;;;4983594;28;20188;-50
2022/10/15 12:30:41;;;;;;;1.83;0.70;;;17.90;99.90;;;;;;5012934;28;20183;-51
2022/10/15 12:33:53;;;;;;;1.67;0.70;;;18.50;99.90;;;;;;5012674;28;20199;-50
2022/10/15 12:36:23;;;;;;;1.00;0.63;;;19.20;99.90;;;;;;4971113;28;20251;-52
2022/10/15 12:38:55;;;;;;;1.10;0.60;;;19.30;99.90;;;;;;4971017;28;20245;-48
2022/10/15 12:41:41;;;;;;;0.77;0.67;;;18.90;99.90;;;;;;4971347;28;20201;-50
2022/10/15 12:44:23;;;;;;;2.38;0.70;;;18.60;99.90;;;;;;4971221;28;20740;-48
2022/10/15 12:46:49;;;;;;;0.63;0.60;;;18.60;99.90;;;;;;4971391;28;20186;-48
2022/10/15 12:49:29;;;;;;;0.67;0.50;;;18.50;99.90;;;;;;4971268;28;20178;-49
2022/10/15 12:51:56;;;;;;;2.17;0.80;;;18.50;99.90;;;;;;4970951;28;20309;-52
2022/10/15 12:54:42;;;;;;;0.97;0.63;;;18.50;99.90;;;;;;4970884;28;20599;-50
2022/10/15 12:57:35;;;;;;;3.27;1.10;;;18.60;99.90;;;;;;4971096;28;20706;-48
2022/10/15 13:00:23;;;;;;;2.93;0.77;;;18.70;99.90;;;;;;4966059;28;20667;-48
2022/10/15 13:02:49;;;;;;;0.97;0.70;;;18.80;99.90;;;;;;4970492;28;20198;-52
2022/10/15 13:05:34;;;;;;;0.60;0.60;;;18.80;99.90;;;;;;4970790;28;20533;-54